This is the latest recevied weather packets stored in our database for station/object KC4GS-13. If no packets are shown the sender has not sent any weather packets the latest 10 day(s).
| Time | Temp. | Humidity | Pressure | Rain* | Wind** | Luminosity | Snow |
|---|---|---|---|---|---|---|---|
| 1778088689 | 26.67° C | 57% | 1016.2 hPa | 0 mm | - | 214 W/m² | - |
| 1778088386 | 27.78° C | 56% | 1016.2 hPa | 0 mm | - | 240 W/m² | - |
| 1778088082 | 28.33° C | 54% | 1016.2 hPa | 0 mm | - | 652 W/m² | - |
| 1778087779 | 28.89° C | 52% | 1016.1 hPa | 0 mm | - | 396 W/m² | - |
| 1778087476 | 28.33° C | 57% | 1016.2 hPa | 0 mm | - | 920 W/m² | - |
| 1778087174 | 27.78° C | 58% | 1016.6 hPa | 0 mm | - | 828 W/m² | - |
| 1778086866 | 27.22° C | 60% | 1016.5 hPa | 0 mm | - | 791 W/m² | - |
| 1778086564 | 26.67° C | 62% | 1016.6 hPa | 0 mm | - | 524 W/m² | - |
| 1778086260 | 26.11° C | 63% | 1017 hPa | 0 mm | - | 478 W/m² | - |
| 1778085957 | 25.56° C | 65% | 1017 hPa | 0 mm | - | 351 W/m² | - |
| 1778085654 | 25° C | 66% | 1017.3 hPa | 0 mm | - | 293 W/m² | - |
| 1778085350 | 25° C | 66% | 1017.2 hPa | 0 mm | - | 292 W/m² | - |
| 1778085045 | 25° C | 67% | 1017.3 hPa | 0 mm | - | 308 W/m² | - |
| 1778084742 | 25° C | 67% | 1017.4 hPa | 0 mm | - | 104 W/m² | - |
| 1778084433 | 25° C | 66% | 1017.3 hPa | 0 mm | - | 97 W/m² | - |
| 1778084131 | 25.56° C | 66% | 1017.3 hPa | 0 mm | - | 147 W/m² | - |
| 1778083822 | 25.56° C | 67% | 1017.6 hPa | 0 mm | - | 258 W/m² | - |
| 1778083520 | 25° C | 67% | 1017.6 hPa | 0 mm | - | 331 W/m² | - |
| 1778083217 | 25° C | 66% | 1017.6 hPa | 0 mm | - | 242 W/m² | - |
| 1778082915 | 25° C | 66% | 1017.6 hPa | 0 mm | - | 368 W/m² | - |
| 1778081806 | 23.89° C | 72% | 1017.6 hPa | 0 mm | - | 210 W/m² | - |
| 1778081504 | 23.89° C | 73% | 1017.7 hPa | 0 mm | - | 187 W/m² | - |
| 1778081200 | 23.89° C | 72% | 1017.6 hPa | 0 mm | - | 126 W/m² | - |
| 1778080898 | 23.89° C | 73% | 1017.8 hPa | 0 mm | - | 114 W/m² | - |
| 1778080597 | 23.89° C | 73% | 1017.4 hPa | 0 mm | - | 182 W/m² | - |
* Rain latest hour (hover to see other rain measurements)
** Current wind speed in m/s (hover to see current wind gust speed)